createdAt,value
2015-09-17T00:00:02.192Z,8.34
2015-09-17T00:00:14.598Z,8.28
2015-09-17T00:00:27.005Z,8.35
2015-09-17T00:00:39.428Z,8.29
2015-09-17T00:00:51.834Z,8.36
2015-09-17T00:01:04.224Z,8.35
2015-09-17T00:01:16.615Z,8.4
2015-09-17T00:01:29.021Z,8.34
2015-09-17T00:01:41.414Z,8.42
2015-09-17T00:01:53.836Z,8.43
2015-09-17T00:02:06.242Z,8.44
2015-09-17T00:02:18.633Z,8.44
2015-09-17T00:02:30.883Z,8.43
2015-09-17T00:02:43.275Z,8.43
2015-09-17T00:02:55.682Z,8.49
2015-09-17T00:03:08.103Z,8.5
2015-09-17T00:03:20.494Z,8.49
2015-09-17T00:03:32.900Z,8.52
2015-09-17T00:03:45.309Z,8.46
2015-09-17T00:03:57.699Z,8.5
2015-09-17T00:04:09.949Z,8.46
2015-09-17T00:04:22.355Z,8.43
2015-09-17T00:04:34.777Z,8.57
2015-09-17T00:04:47.170Z,8.54
2015-09-17T00:04:58.857Z,8.47
2015-09-17T00:05:11.264Z,8.4
2015-09-17T00:05:23.670Z,8.46
2015-09-17T00:05:35.357Z,8.42
2015-09-17T00:05:47.766Z,8.42
2015-09-17T00:06:00.188Z,8.46
2015-09-17T00:06:12.578Z,8.46
2015-09-17T00:06:24.984Z,8.43
2015-09-17T00:06:37.375Z,8.44
2015-09-17T00:06:49.783Z,8.44
2015-09-17T00:07:02.190Z,8.43
2015-09-17T00:07:14.643Z,8.49
2015-09-17T00:07:27.033Z,8.44
2015-09-17T00:07:39.440Z,8.42
2015-09-17T00:07:51.848Z,8.46
2015-09-17T00:08:04.254Z,8.44
2015-09-17T00:08:16.645Z,8.36
2015-09-17T00:08:29.067Z,8.44
2015-09-17T00:08:41.473Z,8.5
2015-09-17T00:08:53.881Z,8.47
2015-09-17T00:09:06.272Z,8.5
2015-09-17T00:09:18.678Z,8.5
2015-09-17T00:09:31.069Z,8.5
2015-09-17T00:09:43.490Z,8.53
2015-09-17T00:09:55.914Z,8.49
2015-09-17T00:10:08.305Z,8.53
2015-09-17T00:10:20.696Z,8.49
2015-09-17T00:10:33.102Z,8.52
2015-09-17T00:10:45.508Z,8.54
2015-09-17T00:10:57.932Z,8.5
2015-09-17T00:11:10.354Z,8.54
2015-09-17T00:11:22.760Z,8.54
2015-09-17T00:11:35.166Z,8.5
2015-09-17T00:11:47.557Z,8.53
2015-09-17T00:11:59.950Z,8.5
2015-09-17T00:12:12.356Z,8.49
2015-09-17T00:12:24.778Z,8.53
2015-09-17T00:12:37.168Z,8.5
2015-09-17T00:12:49.559Z,8.57
2015-09-17T00:13:01.967Z,8.54
2015-09-17T00:13:14.358Z,8.5
2015-09-17T00:13:26.764Z,8.54
2015-09-17T00:13:39.186Z,8.5
2015-09-17T00:13:51.608Z,8.46
2015-09-17T00:14:03.999Z,8.49
2015-09-17T00:14:16.406Z,8.53
2015-09-17T00:14:28.812Z,8.47
2015-09-17T00:14:41.203Z,8.53
2015-09-17T00:14:53.624Z,8.46
2015-09-17T00:15:06.034Z,8.47
2015-09-17T00:15:18.440Z,8.52
2015-09-17T00:15:30.831Z,8.5
2015-09-17T00:15:43.221Z,8.44
2015-09-17T00:15:55.627Z,8.46
2015-09-17T00:16:08.036Z,8.4
2015-09-17T00:16:20.442Z,8.49
2015-09-17T00:16:32.879Z,8.43
2015-09-17T00:16:45.270Z,8.46
2015-09-17T00:16:57.661Z,8.44
2015-09-17T00:17:10.069Z,8.44
2015-09-17T00:17:22.460Z,8.43
2015-09-17T00:17:34.881Z,8.53
2015-09-17T00:17:47.303Z,8.46
2015-09-17T00:17:59.694Z,8.47
2015-09-17T00:18:12.087Z,8.44
2015-09-17T00:18:24.493Z,8.52
2015-09-17T00:18:36.883Z,8.47
2015-09-17T00:18:49.305Z,8.53
2015-09-17T00:19:01.712Z,8.44
2015-09-17T00:19:14.104Z,8.49
2015-09-17T00:19:26.510Z,8.5
2015-09-17T00:19:38.901Z,8.5
2015-09-17T00:19:51.276Z,8.46
2015-09-17T00:20:03.669Z,8.57
2015-09-17T00:20:16.075Z,8.44
2015-09-17T00:20:28.512Z,8.43
2015-09-17T00:20:40.903Z,8.5
2015-09-17T00:20:53.294Z,8.44
2015-09-17T00:21:05.702Z,8.44
2015-09-17T00:21:18.108Z,8.46
2015-09-17T00:21:30.499Z,8.43
2015-09-17T00:21:42.921Z,8.47
2015-09-17T00:21:55.327Z,8.46
2015-09-17T00:22:07.719Z,8.44
2015-09-17T00:22:20.125Z,8.42
2015-09-17T00:22:32.531Z,8.4
2015-09-17T00:22:44.984Z,8.43
2015-09-17T00:22:57.390Z,8.43
2015-09-17T00:23:09.799Z,8.42
2015-09-17T00:23:22.205Z,8.42
2015-09-17T00:23:34.596Z,8.29
2015-09-17T00:23:47.002Z,8.35
2015-09-17T00:23:59.408Z,8.32
2015-09-17T00:24:11.816Z,8.31
2015-09-17T00:24:24.223Z,8.32
2015-09-17T00:24:36.644Z,8.28
2015-09-17T00:24:49.035Z,8.32
2015-09-17T00:25:00.723Z,8.35
2015-09-17T00:25:12.413Z,8.32
2015-09-17T00:25:24.819Z,8.36
2015-09-17T00:25:37.241Z,8.19
2015-09-17T00:25:49.663Z,8.32
2015-09-17T00:26:02.054Z,8.29
2015-09-17T00:26:14.461Z,8.32
2015-09-17T00:26:26.852Z,8.35
2015-09-17T00:26:39.242Z,8.32
2015-09-17T00:26:51.664Z,8.35
2015-09-17T00:27:04.086Z,8.34
2015-09-17T00:27:16.479Z,8.32
2015-09-17T00:27:28.885Z,8.32
2015-09-17T00:27:41.275Z,8.32
2015-09-17T00:27:53.682Z,8.29
2015-09-17T00:28:06.104Z,8.34
2015-09-17T00:28:18.512Z,8.21
2015-09-17T00:28:30.918Z,8.31
2015-09-17T00:28:43.324Z,8.28
2015-09-17T00:28:55.715Z,8.29
2015-09-17T00:29:08.106Z,8.24
2015-09-17T00:29:20.514Z,8.21
2015-09-17T00:29:32.936Z,8.22
2015-09-17T00:29:45.342Z,8.32
2015-09-17T00:29:57.733Z,8.31
2015-09-17T00:30:10.139Z,8.36
2015-09-17T00:30:22.516Z,8.21
2015-09-17T00:30:34.922Z,8.25
2015-09-17T00:30:47.328Z,8.26
2015-09-17T00:30:59.750Z,8.32
2015-09-17T00:31:12.156Z,8.32
2015-09-17T00:31:24.549Z,8.31
2015-09-17T00:31:36.940Z,8.31
2015-09-17T00:31:49.346Z,8.28
2015-09-17T00:32:01.752Z,8.25
2015-09-17T00:32:14.174Z,8.32
2015-09-17T00:32:26.582Z,8.39
2015-09-17T00:32:38.989Z,8.36
2015-09-17T00:32:51.395Z,8.36
2015-09-17T00:33:03.785Z,8.35
2015-09-17T00:33:16.194Z,8.34
2015-09-17T00:33:28.600Z,8.28
2015-09-17T00:33:40.866Z,8.29
2015-09-17T00:33:53.256Z,8.35
2015-09-17T00:34:05.662Z,8.32
2015-09-17T00:34:18.055Z,8.31
2015-09-17T00:34:30.446Z,8.26
2015-09-17T00:34:42.852Z,8.25
2015-09-17T00:34:55.274Z,8.32
2015-09-17T00:35:07.680Z,8.35
2015-09-17T00:35:20.073Z,8.35
2015-09-17T00:35:32.479Z,8.31
2015-09-17T00:35:44.870Z,8.25
2015-09-17T00:35:56.557Z,8.35
2015-09-17T00:36:08.979Z,8.28
2015-09-17T00:36:21.402Z,8.32
2015-09-17T00:36:33.792Z,8.28
2015-09-17T00:36:46.183Z,8.26
2015-09-17T00:36:58.574Z,8.34
2015-09-17T00:37:10.980Z,8.26
2015-09-17T00:37:23.388Z,8.28
2015-09-17T00:37:35.810Z,8.25
2015-09-17T00:37:48.232Z,8.29
2015-09-17T00:38:00.607Z,8.29
2015-09-17T00:38:13.013Z,8.22
2015-09-17T00:38:25.407Z,8.13
2015-09-17T00:38:37.813Z,8.16
2015-09-17T00:38:50.235Z,8.19
2015-09-17T00:39:02.657Z,8.32
2015-09-17T00:39:15.047Z,8.17
2015-09-17T00:39:27.456Z,8.26
2015-09-17T00:39:39.862Z,8.21
2015-09-17T00:39:52.268Z,8.17
2015-09-17T00:40:04.518Z,8.21
2015-09-17T00:40:16.956Z,8.24
2015-09-17T00:40:29.347Z,8.16
2015-09-17T00:40:41.769Z,8.21
2015-09-17T00:40:54.160Z,8.14
2015-09-17T00:41:06.566Z,8.21
2015-09-17T00:41:18.972Z,8.11
2015-09-17T00:41:31.397Z,8.21
2015-09-17T00:41:43.788Z,8.14
2015-09-17T00:41:56.194Z,8.31
2015-09-17T00:42:08.585Z,8.26
2015-09-17T00:42:20.991Z,8.31
2015-09-17T00:42:33.398Z,8.26
2015-09-17T00:42:45.820Z,8.29
2015-09-17T00:42:58.211Z,8.22
2015-09-17T00:43:10.617Z,8.13
2015-09-17T00:43:23.008Z,8.19
2015-09-17T00:43:35.416Z,8.17
2015-09-17T00:43:47.822Z,8.13
2015-09-17T00:44:00.228Z,8.16
2015-09-17T00:44:12.650Z,8.17
2015-09-17T00:44:25.056Z,8.28
2015-09-17T00:44:37.465Z,8.17
2015-09-17T00:44:49.152Z,8.21
2015-09-17T00:45:01.558Z,8.17
2015-09-17T00:45:13.965Z,8.22
2015-09-17T00:45:26.371Z,8.13
2015-09-17T00:45:38.780Z,8.13
2015-09-17T00:45:51.186Z,8.19
2015-09-17T00:46:03.577Z,8.14
2015-09-17T00:46:15.968Z,8.19
2015-09-17T00:46:28.376Z,8.19
2015-09-17T00:46:40.798Z,8.16
2015-09-17T00:46:53.204Z,8.11
2015-09-17T00:47:05.610Z,8.17
2015-09-17T00:47:18.001Z,8.17
2015-09-17T00:47:30.408Z,8.17
2015-09-17T00:47:42.814Z,8.16
2015-09-17T00:47:55.221Z,8.22
2015-09-17T00:48:07.627Z,8.19
2015-09-17T00:48:20.033Z,8.11
2015-09-17T00:48:32.441Z,8.11
2015-09-17T00:48:44.832Z,8.13
2015-09-17T00:48:57.238Z,8.21
2015-09-17T00:49:09.629Z,8.21
2015-09-17T00:49:22.051Z,8.13
2015-09-17T00:49:34.475Z,8.19
2015-09-17T00:49:46.865Z,8.1
2015-09-17T00:49:59.272Z,8.16
2015-09-17T00:50:11.662Z,8.09
2015-09-17T00:50:24.053Z,8.13
2015-09-17T00:50:36.492Z,8.09
2015-09-17T00:50:48.930Z,8.06
2015-09-17T00:51:01.320Z,8.1
2015-09-17T00:51:13.711Z,8.06
2015-09-17T00:51:26.117Z,8.09
2015-09-17T00:51:38.510Z,8.03
2015-09-17T00:51:50.760Z,7.98
2015-09-17T00:52:03.182Z,8.01
2015-09-17T00:52:15.604Z,7.99
2015-09-17T00:52:27.994Z,8.04
2015-09-17T00:52:40.387Z,8.09
2015-09-17T00:52:52.793Z,8.03
2015-09-17T00:53:05.184Z,8.01
2015-09-17T00:53:17.606Z,7.99
2015-09-17T00:53:30.028Z,8.01
2015-09-17T00:53:42.420Z,8.06
2015-09-17T00:53:54.811Z,8.01
2015-09-17T00:54:07.217Z,7.96
2015-09-17T00:54:19.608Z,8.03
2015-09-17T00:54:32.014Z,7.96
2015-09-17T00:54:44.438Z,8.03
2015-09-17T00:54:56.844Z,7.98
2015-09-17T00:55:09.235Z,7.96
2015-09-17T00:55:21.641Z,7.99
2015-09-17T00:55:34.032Z,8.07
2015-09-17T00:55:46.440Z,8.09
2015-09-17T00:55:58.862Z,8.01
2015-09-17T00:56:11.268Z,8.01
2015-09-17T00:56:23.659Z,7.95
2015-09-17T00:56:36.065Z,8.03
2015-09-17T00:56:48.441Z,8.07
2015-09-17T00:57:00.847Z,7.95
2015-09-17T00:57:12.566Z,8.06
2015-09-17T00:57:24.972Z,8.07
2015-09-17T00:57:37.363Z,8.06
2015-09-17T00:57:49.772Z,8.1
2015-09-17T00:58:02.178Z,8.04
2015-09-17T00:58:14.553Z,8.01
2015-09-17T00:58:26.944Z,8.09
2015-09-17T00:58:39.366Z,8.06
2015-09-17T00:58:51.758Z,8.01
2015-09-17T00:59:04.149Z,8.06
2015-09-17T00:59:16.540Z,8.01
2015-09-17T00:59:28.930Z,7.96
2015-09-17T00:59:41.336Z,7.99
2015-09-17T00:59:53.588Z,7.98
2015-09-17T01:00:06.010Z,8.03
2015-09-17T01:00:18.417Z,7.99
2015-09-17T01:00:30.807Z,7.99
2015-09-17T01:00:43.213Z,8.03
2015-09-17T01:00:55.606Z,8.03
2015-09-17T01:01:08.012Z,7.98
2015-09-17T01:01:20.434Z,7.98
2015-09-17T01:01:32.840Z,7.98
2015-09-17T01:01:45.231Z,7.99
2015-09-17T01:01:57.655Z,7.98
2015-09-17T01:02:10.046Z,8.04
2015-09-17T01:02:21.733Z,7.99
2015-09-17T01:02:34.155Z,8.01
2015-09-17T01:02:46.577Z,7.95
2015-09-17T01:02:58.969Z,8.01
2015-09-17T01:03:11.376Z,7.96
2015-09-17T01:03:23.782Z,7.99
2015-09-17T01:03:36.173Z,7.95
2015-09-17T01:03:48.595Z,7.95
2015-09-17T01:04:01.017Z,8.03
2015-09-17T01:04:13.408Z,7.93
2015-09-17T01:04:25.814Z,7.99
2015-09-17T01:04:38.205Z,7.98
2015-09-17T01:04:50.614Z,8.01
2015-09-17T01:05:03.020Z,7.93
2015-09-17T01:05:15.442Z,7.88
2015-09-17T01:05:27.848Z,8.01
2015-09-17T01:05:40.239Z,7.89
2015-09-17T01:05:52.631Z,7.92
2015-09-17T01:06:05.037Z,7.92
2015-09-17T01:06:17.443Z,7.95
2015-09-17T01:06:29.865Z,7.91
2015-09-17T01:06:42.287Z,7.95
2015-09-17T01:06:54.695Z,7.88
2015-09-17T01:07:07.101Z,7.93
2015-09-17T01:07:19.492Z,7.91
2015-09-17T01:07:31.898Z,7.91
2015-09-17T01:07:44.289Z,7.89
2015-09-17T01:07:56.713Z,7.89
2015-09-17T01:08:09.103Z,7.92
2015-09-17T01:08:21.494Z,7.89
2015-09-17T01:08:33.885Z,7.92
2015-09-17T01:08:46.291Z,7.92
2015-09-17T01:08:57.981Z,7.83
2015-09-17T01:09:10.247Z,7.83
2015-09-17T01:09:22.669Z,7.77
2015-09-17T01:09:35.075Z,7.8
2015-09-17T01:09:47.466Z,7.82
2015-09-17T01:09:59.873Z,7.77
2015-09-17T01:10:12.264Z,7.89
2015-09-17T01:10:24.670Z,7.82
2015-09-17T01:10:37.092Z,7.8
2015-09-17T01:10:49.498Z,7.86
2015-09-17T01:11:01.891Z,7.82
2015-09-17T01:11:14.297Z,7.85
2015-09-17T01:11:26.719Z,7.74
2015-09-17T01:11:39.125Z,7.83
2015-09-17T01:11:51.531Z,7.75
2015-09-17T01:12:03.955Z,7.82
2015-09-17T01:12:16.346Z,7.82
2015-09-17T01:12:28.752Z,7.83
2015-09-17T01:12:41.143Z,7.83
2015-09-17T01:12:53.549Z,7.85
2015-09-17T01:13:05.974Z,7.91
2015-09-17T01:13:18.396Z,7.89
2015-09-17T01:13:30.802Z,7.92
2015-09-17T01:13:43.193Z,7.92
2015-09-17T01:13:55.599Z,7.91
2015-09-17T01:14:07.990Z,7.93
2015-09-17T01:14:20.381Z,7.95
2015-09-17T01:14:32.803Z,7.98
2015-09-17T01:14:45.209Z,7.96
2015-09-17T01:14:57.615Z,8.01
2015-09-17T01:15:10.008Z,7.98
2015-09-17T01:15:22.399Z,8.01
2015-09-17T01:15:34.805Z,8.01
2015-09-17T01:15:47.211Z,7.99
2015-09-17T01:15:59.649Z,7.96
2015-09-17T01:16:12.057Z,7.93
2015-09-17T01:16:24.448Z,7.99
2015-09-17T01:16:36.838Z,7.99
2015-09-17T01:16:49.244Z,7.99
2015-09-17T01:17:01.651Z,7.96
2015-09-17T01:17:14.059Z,8.06
2015-09-17T01:17:26.481Z,7.99
2015-09-17T01:17:38.887Z,8.01
2015-09-17T01:17:51.293Z,7.95
2015-09-17T01:18:03.686Z,7.98
2015-09-17T01:18:16.092Z,8.01
2015-09-17T01:18:28.530Z,7.93
2015-09-17T01:18:40.936Z,7.99
2015-09-17T01:18:53.342Z,7.96
2015-09-17T01:19:05.750Z,7.96
2015-09-17T01:19:18.141Z,7.93
2015-09-17T01:19:30.532Z,7.98
2015-09-17T01:19:42.954Z,7.92
2015-09-17T01:19:55.360Z,7.92
2015-09-17T01:20:07.768Z,7.93
2015-09-17T01:20:20.018Z,7.93
2015-09-17T01:20:32.409Z,7.99
2015-09-17T01:20:44.815Z,7.88
2015-09-17T01:20:57.221Z,7.96
2015-09-17T01:21:09.645Z,7.92
2015-09-17T01:21:22.051Z,7.86
2015-09-17T01:21:34.458Z,7.89
2015-09-17T01:21:46.848Z,7.93
2015-09-17T01:21:59.254Z,7.92
2015-09-17T01:22:11.647Z,7.92
2015-09-17T01:22:23.897Z,7.89
2015-09-17T01:22:36.319Z,7.92
2015-09-17T01:22:48.725Z,7.8
2015-09-17T01:23:01.116Z,7.91
2015-09-17T01:23:13.837Z,7.86
2015-09-17T01:23:26.258Z,7.78
2015-09-17T01:23:38.649Z,7.77
2015-09-17T01:23:51.055Z,7.77
2015-09-17T01:24:03.446Z,7.85
2015-09-17T01:24:15.839Z,7.89
2015-09-17T01:24:28.245Z,7.83
2015-09-17T01:24:39.964Z,7.89
2015-09-17T01:24:52.401Z,7.86
2015-09-17T01:25:04.807Z,7.77
2015-09-17T01:25:17.200Z,7.89
2015-09-17T01:25:29.637Z,7.83
2015-09-17T01:25:42.028Z,7.85
2015-09-17T01:25:54.419Z,7.82
2015-09-17T01:26:06.825Z,7.75
2015-09-17T01:26:19.077Z,7.78
2015-09-17T01:26:31.468Z,7.82
2015-09-17T01:26:43.874Z,7.74
2015-09-17T01:26:56.280Z,7.78
2015-09-17T01:27:08.686Z,7.78
2015-09-17T01:27:21.109Z,7.7
2015-09-17T01:27:33.500Z,7.73
2015-09-17T01:27:45.906Z,7.71
2015-09-17T01:27:58.312Z,7.71
2015-09-17T01:28:10.703Z,7.71
2015-09-17T01:28:23.112Z,7.8
2015-09-17T01:28:35.534Z,7.83
2015-09-17T01:28:47.940Z,7.82
2015-09-17T01:29:00.331Z,7.7
2015-09-17T01:29:12.722Z,7.8
2015-09-17T01:29:25.113Z,7.77
2015-09-17T01:29:37.519Z,7.82
2015-09-17T01:29:49.926Z,7.78
2015-09-17T01:30:02.348Z,7.71
2015-09-17T01:30:14.738Z,7.63
2015-09-17T01:30:27.131Z,7.63
2015-09-17T01:30:39.537Z,7.73
2015-09-17T01:30:51.928Z,7.74
2015-09-17T01:31:04.350Z,7.78
2015-09-17T01:31:16.756Z,7.64
2015-09-17T01:31:29.164Z,7.7
2015-09-17T01:31:41.555Z,7.7
2015-09-17T01:31:53.961Z,7.67
2015-09-17T01:32:06.352Z,7.67
2015-09-17T01:32:18.758Z,7.68
2015-09-17T01:32:31.182Z,7.63
2015-09-17T01:32:43.604Z,7.68
2015-09-17T01:32:55.994Z,7.71
2015-09-17T01:33:08.400Z,7.7
2015-09-17T01:33:20.794Z,7.68
2015-09-17T01:33:33.200Z,7.7
2015-09-17T01:33:45.607Z,7.59
2015-09-17T01:33:58.028Z,7.67
2015-09-17T01:34:10.419Z,7.61
2015-09-17T01:34:22.811Z,7.59
2015-09-17T01:34:35.217Z,7.68
2015-09-17T01:34:47.608Z,7.59
2015-09-17T01:35:00.029Z,7.58
2015-09-17T01:35:12.436Z,7.55
2015-09-17T01:35:24.845Z,7.56
2015-09-17T01:35:37.251Z,7.56
2015-09-17T01:35:49.501Z,7.54
2015-09-17T01:36:01.892Z,7.55
2015-09-17T01:36:14.298Z,7.58
2015-09-17T01:36:26.721Z,7.55
2015-09-17T01:36:39.143Z,7.58
2015-09-17T01:36:51.533Z,7.56
2015-09-17T01:37:03.924Z,7.56
2015-09-17T01:37:16.330Z,7.54
2015-09-17T01:37:28.723Z,7.48
2015-09-17T01:37:40.395Z,7.56
2015-09-17T01:37:52.817Z,7.51
2015-09-17T01:38:05.207Z,7.48
2015-09-17T01:38:17.614Z,7.51
2015-09-17T01:38:30.022Z,7.49
2015-09-17T01:38:42.428Z,7.55
2015-09-17T01:38:54.819Z,7.54
2015-09-17T01:39:07.241Z,7.48
2015-09-17T01:39:19.647Z,7.48
2015-09-17T01:39:32.055Z,7.45
2015-09-17T01:39:44.446Z,7.47
2015-09-17T01:39:56.852Z,7.41
2015-09-17T01:40:09.243Z,7.44
2015-09-17T01:40:21.649Z,7.48
2015-09-17T01:40:34.073Z,7.48
2015-09-17T01:40:46.479Z,7.49
2015-09-17T01:40:58.870Z,7.41
2015-09-17T01:41:10.557Z,7.49
2015-09-17T01:41:22.807Z,7.47
2015-09-17T01:41:35.200Z,7.44
2015-09-17T01:41:47.606Z,7.34
2015-09-17T01:42:00.028Z,7.4
2015-09-17T01:42:12.434Z,7.45
2015-09-17T01:42:24.825Z,7.45
2015-09-17T01:42:37.217Z,7.47
2015-09-17T01:42:49.608Z,7.4
2015-09-17T01:43:01.858Z,7.41
2015-09-17T01:43:14.249Z,7.37
2015-09-17T01:43:26.670Z,7.36
2015-09-17T01:43:39.094Z,7.34
2015-09-17T01:43:51.485Z,7.31
2015-09-17T01:44:03.876Z,7.37
2015-09-17T01:44:16.282Z,7.41
2015-09-17T01:44:28.688Z,7.33
2015-09-17T01:44:41.096Z,7.33
2015-09-17T01:44:53.503Z,7.3
2015-09-17T01:45:05.909Z,7.37
2015-09-17T01:45:18.315Z,7.34
2015-09-17T01:45:30.706Z,7.34
2015-09-17T01:45:43.114Z,7.3
2015-09-17T01:45:55.505Z,7.37
2015-09-17T01:46:07.926Z,7.3
2015-09-17T01:46:20.348Z,7.27
2015-09-17T01:46:32.739Z,7.29
2015-09-17T01:46:45.147Z,7.29
2015-09-17T01:46:57.538Z,7.34
2015-09-17T01:47:09.944Z,7.22
2015-09-17T01:47:22.350Z,7.29
2015-09-17T01:47:34.773Z,7.3
2015-09-17T01:47:47.164Z,7.22
2015-09-17T01:47:59.570Z,7.29
2015-09-17T01:48:11.961Z,7.31
2015-09-17T01:48:24.367Z,7.26
2015-09-17T01:48:36.775Z,7.26
2015-09-17T01:48:49.197Z,7.26
2015-09-17T01:49:01.588Z,7.31
2015-09-17T01:49:13.994Z,7.26
2015-09-17T01:49:26.400Z,7.29
2015-09-17T01:49:38.794Z,7.26
2015-09-17T01:49:51.200Z,7.27
2015-09-17T01:50:03.622Z,7.3
2015-09-17T01:50:16.044Z,7.29
2015-09-17T01:50:28.450Z,7.19
2015-09-17T01:50:40.843Z,7.22
2015-09-17T01:50:53.093Z,7.27
2015-09-17T01:51:05.186Z,7.22
2015-09-17T01:51:17.311Z,7.23
2015-09-17T01:51:29.671Z,7.26
2015-09-17T01:51:42.079Z,7.19
2015-09-17T01:51:54.517Z,7.18
2015-09-17T01:52:06.907Z,7.26
2015-09-17T01:52:19.157Z,7.27
2015-09-17T01:52:30.845Z,7.19
2015-09-17T01:52:43.128Z,7.21
2015-09-17T01:52:55.550Z,7.21
2015-09-17T01:53:07.972Z,7.26
2015-09-17T01:53:20.362Z,7.27
2015-09-17T01:53:32.753Z,7.22
2015-09-17T01:53:45.160Z,7.29
2015-09-17T01:53:57.582Z,7.23
2015-09-17T01:54:10.004Z,7.15
2015-09-17T01:54:22.395Z,7.26
2015-09-17T01:54:34.801Z,7.23
2015-09-17T01:54:47.210Z,7.23
2015-09-17T01:54:59.601Z,7.3
2015-09-17T01:55:12.007Z,7.29
2015-09-17T01:55:24.429Z,7.26
2015-09-17T01:55:36.851Z,7.3
2015-09-17T01:55:49.259Z,7.23
2015-09-17T01:56:01.665Z,7.3
2015-09-17T01:56:14.056Z,7.29
2015-09-17T01:56:26.462Z,7.27
2015-09-17T01:56:38.868Z,7.26
2015-09-17T01:56:51.291Z,7.26
2015-09-17T01:57:03.682Z,7.29
2015-09-17T01:57:16.088Z,7.29
2015-09-17T01:57:28.479Z,7.23
2015-09-17T01:57:40.885Z,7.26
2015-09-17T01:57:53.293Z,7.22
2015-09-17T01:58:05.715Z,7.29
2015-09-17T01:58:18.121Z,7.26
2015-09-17T01:58:30.512Z,7.22
2015-09-17T01:58:42.918Z,7.23
2015-09-17T01:58:55.311Z,7.23
2015-09-17T01:59:07.717Z,7.23
2015-09-17T01:59:20.139Z,7.26
2015-09-17T01:59:32.561Z,7.21
2015-09-17T01:59:44.967Z,7.26
2015-09-17T01:59:57.360Z,7.21
2015-09-17T02:00:09.766Z,7.26
2015-09-17T02:00:22.157Z,7.21
2015-09-17T02:00:34.563Z,7.22
2015-09-17T02:00:46.985Z,7.27
2015-09-17T02:00:58.674Z,7.22
2015-09-17T02:01:11.065Z,7.23
2015-09-17T02:01:23.471Z,7.19
2015-09-17T02:01:35.862Z,7.16
2015-09-17T02:01:48.268Z,7.16
2015-09-17T02:02:00.676Z,7.21
2015-09-17T02:02:13.098Z,7.23
2015-09-17T02:02:25.348Z,7.22
2015-09-17T02:02:37.739Z,7.12
2015-09-17T02:02:50.145Z,7.22
2015-09-17T02:03:02.538Z,7.16
2015-09-17T02:03:14.944Z,7.12
2015-09-17T02:03:27.366Z,7.11
2015-09-17T02:03:39.772Z,7.19
2015-09-17T02:03:52.178Z,7.15
2015-09-17T02:04:04.571Z,7.15
2015-09-17T02:04:16.961Z,7.23
2015-09-17T02:04:29.383Z,7.15
2015-09-17T02:04:41.649Z,7.12
2015-09-17T02:04:54.057Z,7.12
2015-09-17T02:05:06.463Z,7.08
2015-09-17T02:05:18.854Z,7.05
2015-09-17T02:05:31.245Z,7.12
2015-09-17T02:05:43.651Z,7.09
2015-09-17T02:05:56.090Z,7.05
2015-09-17T02:06:08.528Z,6.97
2015-09-17T02:06:20.934Z,7.08
2015-09-17T02:06:33.325Z,7.05
2015-09-17T02:06:45.731Z,7.01
2015-09-17T02:06:58.124Z,6.98
2015-09-17T02:07:10.530Z,7.01
2015-09-17T02:07:22.952Z,7
2015-09-17T02:07:35.342Z,6.94
2015-09-17T02:07:47.749Z,7.08
2015-09-17T02:08:00.141Z,7.03
2015-09-17T02:08:12.532Z,7.09
2015-09-17T02:08:24.938Z,7.04
2015-09-17T02:08:37.360Z,7.04
2015-09-17T02:08:49.782Z,7.08
2015-09-17T02:09:02.189Z,7.04
2015-09-17T02:09:14.580Z,7.04
2015-09-17T02:09:26.986Z,7.08
2015-09-17T02:09:39.377Z,7.11
2015-09-17T02:09:51.783Z,7.12
2015-09-17T02:10:04.191Z,7.04
2015-09-17T02:10:16.597Z,7.11
2015-09-17T02:10:29.019Z,7.08
2015-09-17T02:10:41.410Z,7.11
2015-09-17T02:10:53.816Z,7.09
2015-09-17T02:11:06.224Z,7.15
2015-09-17T02:11:18.615Z,7.12
2015-09-17T02:11:31.006Z,7.08
2015-09-17T02:11:43.443Z,7.16
2015-09-17T02:11:55.865Z,7.11
2015-09-17T02:12:08.259Z,7.22
2015-09-17T02:12:20.493Z,7.22
2015-09-17T02:12:32.899Z,7.22
2015-09-17T02:12:45.290Z,7.21
2015-09-17T02:12:57.696Z,7.22
2015-09-17T02:13:10.135Z,7.18
2015-09-17T02:13:22.541Z,7.18
2015-09-17T02:13:34.213Z,7.15
2015-09-17T02:13:46.619Z,7.26
2015-09-17T02:13:59.010Z,7.18
2015-09-17T02:14:11.418Z,7.21
2015-09-17T02:14:23.824Z,7.12
2015-09-17T02:14:36.230Z,7.18
2015-09-17T02:14:48.621Z,7.16
2015-09-17T02:15:01.027Z,7.18
2015-09-17T02:15:13.421Z,7.15
2015-09-17T02:15:25.827Z,7.18
2015-09-17T02:15:38.233Z,7.16
2015-09-17T02:15:50.655Z,7.16
2015-09-17T02:16:03.046Z,7.19
2015-09-17T02:16:15.438Z,7.19
2015-09-17T02:16:27.828Z,7.18
2015-09-17T02:16:40.219Z,7.15
2015-09-17T02:16:52.625Z,7.15
2015-09-17T02:17:05.016Z,7.09
2015-09-17T02:17:17.425Z,7.16
2015-09-17T02:17:29.831Z,7.09
2015-09-17T02:17:42.222Z,7.11
2015-09-17T02:17:54.659Z,7.15
2015-09-17T02:18:07.081Z,7.11
2015-09-17T02:18:19.474Z,7.04
2015-09-17T02:18:31.880Z,7.05
2015-09-17T02:18:44.271Z,7
2015-09-17T02:18:55.974Z,7.04
2015-09-17T02:19:08.364Z,6.94
2015-09-17T02:19:20.773Z,7.01
2015-09-17T02:19:33.179Z,7.01
2015-09-17T02:19:45.570Z,6.98
2015-09-17T02:19:57.976Z,6.97
2015-09-17T02:20:10.382Z,6.94
2015-09-17T02:20:22.805Z,7
2015-09-17T02:20:35.211Z,7.01
2015-09-17T02:20:46.899Z,7
2015-09-17T02:20:59.305Z,7.04
2015-09-17T02:21:11.696Z,6.98
2015-09-17T02:21:24.088Z,7
2015-09-17T02:21:36.510Z,7.01
2015-09-17T02:21:48.932Z,7.03
2015-09-17T02:22:01.323Z,6.98
2015-09-17T02:22:13.729Z,6.98
2015-09-17T02:22:26.121Z,7.08
2015-09-17T02:22:38.512Z,7.01
2015-09-17T02:22:50.918Z,6.98
2015-09-17T02:23:03.340Z,7.03
2015-09-17T02:23:15.762Z,6.98
2015-09-17T02:23:28.170Z,6.97
2015-09-17T02:23:40.561Z,7.03
2015-09-17T02:23:52.967Z,7
2015-09-17T02:24:05.373Z,6.97
2015-09-17T02:24:17.797Z,7.01
2015-09-17T02:24:30.219Z,7
2015-09-17T02:24:42.625Z,7.01
2015-09-17T02:24:54.313Z,6.95
2015-09-17T02:25:06.563Z,6.98
2015-09-17T02:25:19.221Z,7.11
2015-09-17T02:25:31.471Z,7.04
2015-09-17T02:25:43.862Z,6.98
2015-09-17T02:25:56.268Z,6.97
2015-09-17T02:26:08.674Z,7.04
2015-09-17T02:26:21.067Z,7.12
2015-09-17T02:26:33.458Z,7
2015-09-17T02:26:45.879Z,6.98
2015-09-17T02:26:58.286Z,6.95
2015-09-17T02:27:10.551Z,6.94
2015-09-17T02:27:22.975Z,7.13
2015-09-17T02:27:35.381Z,7.13
2015-09-17T02:27:47.803Z,7.15
2015-09-17T02:28:00.194Z,7.15
2015-09-17T02:28:12.585Z,7.21
2015-09-17T02:28:24.977Z,7.18
2015-09-17T02:28:37.368Z,7.18
2015-09-17T02:28:49.774Z,7.19
2015-09-17T02:29:02.196Z,7.15
2015-09-17T02:29:14.602Z,7.18
2015-09-17T02:29:26.995Z,7.19
2015-09-17T02:29:39.401Z,7.19
2015-09-17T02:29:51.792Z,7.19
2015-09-17T02:30:04.198Z,7.16
2015-09-17T02:30:15.885Z,7.19
2015-09-17T02:30:28.278Z,7.21
2015-09-17T02:30:40.684Z,7.18
2015-09-17T02:30:53.106Z,7.21
2015-09-17T02:31:05.512Z,7.13
2015-09-17T02:31:17.903Z,7.18
2015-09-17T02:31:30.296Z,7.22
2015-09-17T02:31:42.702Z,7.22
2015-09-17T02:31:55.108Z,7.21
2015-09-17T02:32:07.514Z,7.27
2015-09-17T02:32:19.936Z,7.23
2015-09-17T02:32:32.329Z,7.16
2015-09-17T02:32:44.735Z,7.13
2015-09-17T02:32:57.126Z,7.15
2015-09-17T02:33:08.829Z,7.15
2015-09-17T02:33:21.220Z,7.22
2015-09-17T02:33:33.643Z,7.15
2015-09-17T02:33:46.050Z,7.15
2015-09-17T02:33:58.456Z,7.15
2015-09-17T02:34:10.862Z,7.12
2015-09-17T02:34:23.393Z,7.18
2015-09-17T02:34:35.786Z,7.15
2015-09-17T02:34:48.208Z,7.08
2015-09-17T02:35:00.614Z,7.05
2015-09-17T02:35:13.036Z,7.15
2015-09-17T02:35:25.427Z,7.12
2015-09-17T02:35:37.835Z,7.11
2015-09-17T02:35:50.241Z,7.09
2015-09-17T02:36:02.632Z,7.01
2015-09-17T02:36:15.038Z,7.13
2015-09-17T02:36:27.460Z,7.08
2015-09-17T02:36:39.884Z,7.01
2015-09-17T02:36:51.571Z,7.01
2015-09-17T02:37:03.978Z,7.09
2015-09-17T02:37:16.368Z,7.09
2015-09-17T02:37:28.774Z,7.05
2015-09-17T02:37:41.183Z,7.11
2015-09-17T02:37:53.589Z,7.09
2015-09-17T02:38:05.995Z,7.08
2015-09-17T02:38:18.386Z,7.16
2015-09-17T02:38:30.776Z,7.15
2015-09-17T02:38:43.184Z,7.15
2015-09-17T02:38:55.590Z,7.16
2015-09-17T02:39:07.996Z,7.21
2015-09-17T02:39:20.418Z,7.15
2015-09-17T02:39:32.811Z,7.13
2015-09-17T02:39:45.061Z,7.18
2015-09-17T02:39:57.467Z,7.13
2015-09-17T02:40:09.858Z,7.18
2015-09-17T02:40:22.264Z,7.21
2015-09-17T02:40:34.689Z,7.29
2015-09-17T02:40:47.095Z,7.18
2015-09-17T02:40:59.881Z,7.29
2015-09-17T02:41:11.464Z,7.19
2015-09-17T02:41:24.558Z,7.22
2015-09-17T02:41:37.529Z,7.23
2015-09-17T02:41:50.060Z,7.21
2015-09-17T02:42:02.575Z,7.18
2015-09-17T02:42:14.872Z,7.23
2015-09-17T02:42:27.107Z,7.21
2015-09-17T02:42:39.764Z,7.15
2015-09-17T02:42:51.967Z,7.19
2015-09-17T02:43:04.311Z,7.22
2015-09-17T02:43:16.545Z,7.19
2015-09-17T02:43:28.905Z,7.19
2015-09-17T02:43:41.438Z,7.23
2015-09-17T02:43:54.016Z,7.16
2015-09-17T02:44:06.547Z,7.29
2015-09-17T02:44:19.999Z,7.31
2015-09-17T02:44:32.452Z,7.22
2015-09-17T02:44:45.095Z,7.29
2015-09-17T02:44:57.486Z,7.26
2015-09-17T02:45:09.876Z,7.3